createdAt,value
2023-02-09T00:01:52.851Z,0.89
2023-02-09T00:04:26.349Z,0.92
2023-02-09T00:06:53.889Z,0.94
2023-02-09T00:09:27.304Z,0.93
2023-02-09T00:12:19.363Z,0.91
2023-02-09T00:14:52.345Z,0.83
2023-02-09T00:17:25.334Z,0.84
2023-02-09T00:19:54.637Z,0.85
2023-02-09T00:22:28.363Z,0.87
2023-02-09T00:24:57.099Z,0.88
2023-02-09T00:27:30.281Z,0.91
2023-02-09T00:29:56.884Z,0.92
2023-02-09T00:32:30.281Z,0.92
2023-02-09T00:34:56.854Z,0.94
2023-02-09T00:37:30.319Z,0.90
2023-02-09T00:40:03.416Z,0.89
2023-02-09T00:42:36.309Z,0.90
2023-02-09T00:45:09.318Z,0.93
2023-02-09T00:47:42.316Z,0.85
2023-02-09T00:50:09.345Z,0.87
2023-02-09T00:52:42.292Z,0.83
2023-02-09T00:55:16.310Z,0.81
2023-02-09T00:57:42.843Z,0.78
2023-02-09T01:00:17.299Z,0.77
2023-02-09T01:02:43.841Z,0.76
2023-02-09T01:05:17.365Z,0.77
2023-02-09T01:07:43.943Z,0.70
2023-02-09T01:10:17.340Z,0.74
2023-02-09T01:12:44.163Z,0.68
2023-02-09T01:15:18.316Z,0.68
2023-02-09T01:17:44.853Z,0.62
2023-02-09T01:20:13.535Z,0.65
2023-02-09T01:22:47.277Z,0.61
2023-02-09T01:25:13.788Z,0.52
2023-02-09T01:27:48.309Z,0.49
2023-02-09T01:30:15.774Z,0.48
2023-02-09T01:32:49.334Z,0.43
2023-02-09T01:35:15.901Z,0.37
2023-02-09T01:37:55.309Z,0.34
2023-02-09T01:40:28.438Z,0.30
2023-02-09T01:43:01.346Z,0.30
2023-02-09T01:45:45.580Z,0.31
2023-02-09T01:48:20.289Z,0.27
2023-02-09T01:50:51.748Z,0.20
2023-02-09T01:53:26.400Z,0.17
2023-02-09T01:56:09.316Z,0.11
2023-02-09T01:58:36.013Z,0.09
2023-02-09T02:01:09.330Z,0.01
2023-02-09T02:03:35.909Z,-0.08
2023-02-09T02:06:15.298Z,-0.09
2023-02-09T02:08:48.791Z,-0.11
2023-02-09T02:11:23.350Z,-0.14
2023-02-09T02:13:50.677Z,-0.22
2023-02-09T02:16:26.390Z,-0.20
2023-02-09T02:19:28.373Z,-0.23
2023-02-09T02:22:23.358Z,-0.26
2023-02-09T02:25:11.364Z,-0.28
2023-02-09T02:27:53.397Z,-0.31
2023-02-09T02:30:43.531Z,-0.36
2023-02-09T02:33:43.357Z,-0.36
2023-02-09T02:36:46.317Z,-0.36
2023-02-09T02:39:49.340Z,-0.39
2023-02-09T02:42:52.127Z,-0.38
2023-02-09T02:45:45.325Z,-0.43
2023-02-09T02:48:24.617Z,-0.46
2023-02-09T02:51:10.380Z,-0.50
2023-02-09T02:53:41.612Z,-0.55
2023-02-09T02:56:21.334Z,-0.55
2023-02-09T02:58:50.303Z,-0.61
2023-02-09T03:01:30.392Z,-0.53
2023-02-09T03:04:05.341Z,-0.61
2023-02-09T03:06:33.464Z,-0.56
2023-02-09T03:09:06.398Z,-0.55
2023-02-09T03:11:51.388Z,-0.57
2023-02-09T03:14:35.384Z,-0.60
2023-02-09T03:17:07.949Z,-0.63
2023-02-09T03:19:53.405Z,-0.63
2023-02-09T03:22:37.390Z,-0.67
2023-02-09T03:25:22.347Z,-0.64
2023-02-09T03:27:58.862Z,-0.63
2023-02-09T03:30:33.439Z,-0.63
2023-02-09T03:33:13.412Z,-0.67
2023-02-09T03:35:48.414Z,-0.71
2023-02-09T03:38:28.384Z,-0.72
2023-02-09T03:41:01.693Z,-0.75
2023-02-09T03:43:54.406Z,-0.76
2023-02-09T03:46:27.347Z,-0.78
2023-02-09T03:49:00.382Z,-0.81
2023-02-09T03:51:26.970Z,-0.80
2023-02-09T03:54:00.342Z,-0.78
2023-02-09T03:56:26.926Z,-0.79
2023-02-09T03:59:00.380Z,-0.83
2023-02-09T04:01:26.923Z,-0.84
2023-02-09T04:04:00.386Z,-0.84
2023-02-09T04:06:27.357Z,-0.86
2023-02-09T04:08:53.923Z,-0.82
2023-02-09T04:11:27.368Z,-0.85
2023-02-09T04:13:54.026Z,-0.87
2023-02-09T04:16:28.517Z,-0.90
2023-02-09T04:18:55.168Z,-0.91
2023-02-09T04:21:28.447Z,-0.91
2023-02-09T04:24:01.362Z,-0.92
2023-02-09T04:26:34.428Z,-0.91
2023-02-09T04:29:01.170Z,-0.87
2023-02-09T04:31:34.434Z,-0.92
2023-02-09T04:34:07.474Z,-0.87
2023-02-09T04:36:40.565Z,-0.91
2023-02-09T04:39:20.374Z,-0.94
2023-02-09T04:41:46.938Z,-0.95
2023-02-09T04:44:20.355Z,-0.94
2023-02-09T04:46:46.894Z,-0.96
2023-02-09T04:49:20.378Z,-0.98
2023-02-09T04:51:46.957Z,-1.01
2023-02-09T04:54:20.373Z,-1.06
2023-02-09T04:56:46.861Z,-1.06
2023-02-09T04:59:38.381Z,-1.06
2023-02-09T05:02:05.173Z,-1.01
2023-02-09T05:04:38.366Z,-0.98
2023-02-09T05:07:04.876Z,-1.02
2023-02-09T05:09:38.384Z,-1.00
2023-02-09T05:12:05.183Z,-0.98
2023-02-09T05:14:31.698Z,-1.02
2023-02-09T05:17:04.403Z,-0.94
2023-02-09T05:19:31.006Z,-0.93
2023-02-09T05:22:04.410Z,-0.91
2023-02-09T05:24:31.045Z,-0.89
2023-02-09T05:27:04.441Z,-0.91
2023-02-09T05:29:31.072Z,-0.94
2023-02-09T05:32:04.562Z,-0.93
2023-02-09T05:34:37.413Z,-0.97
2023-02-09T05:37:17.404Z,-0.98
2023-02-09T05:39:51.217Z,-1.00
2023-02-09T05:42:24.388Z,-1.00
2023-02-09T05:44:58.395Z,-1.02
2023-02-09T05:47:32.379Z,-1.04
2023-02-09T05:50:05.445Z,-1.08
2023-02-09T05:52:32.133Z,-1.11
2023-02-09T05:55:05.395Z,-1.15
2023-02-09T05:57:31.878Z,-1.17
2023-02-09T06:00:04.427Z,-1.21
2023-02-09T06:02:31.010Z,-1.23
2023-02-09T06:05:04.432Z,-1.24
2023-02-09T06:07:31.009Z,-1.24
2023-02-09T06:09:57.517Z,-1.26
2023-02-09T06:12:31.399Z,-1.30
2023-02-09T06:14:57.962Z,-1.32
2023-02-09T06:17:31.422Z,-1.32
2023-02-09T06:19:58.011Z,-1.40
2023-02-09T06:22:31.441Z,-1.38
2023-02-09T06:24:58.056Z,-1.35
2023-02-09T06:27:31.393Z,-1.34
2023-02-09T06:29:57.890Z,-1.40
2023-02-09T06:32:30.443Z,-1.41
2023-02-09T06:34:57.014Z,-1.33
2023-02-09T06:37:37.469Z,-1.38
2023-02-09T06:40:11.140Z,-1.35
2023-02-09T06:42:53.536Z,-1.36
2023-02-09T06:45:20.101Z,-1.36
2023-02-09T06:47:53.419Z,-1.40
2023-02-09T06:50:27.424Z,-1.38
2023-02-09T06:52:54.043Z,-1.37
2023-02-09T06:55:27.450Z,-1.32
2023-02-09T06:58:01.456Z,-1.34
2023-02-09T07:00:34.430Z,-1.35
2023-02-09T07:03:00.989Z,-1.35
2023-02-09T07:05:34.467Z,-1.36
2023-02-09T07:08:01.050Z,-1.38
2023-02-09T07:10:34.397Z,-1.38
2023-02-09T07:13:00.963Z,-1.39
2023-02-09T07:15:34.526Z,-1.38
2023-02-09T07:18:01.150Z,-1.38
2023-02-09T07:20:34.439Z,-1.39
2023-02-09T07:23:01.587Z,-1.39
2023-02-09T07:25:34.437Z,-1.43
2023-02-09T07:28:07.473Z,-1.43
2023-02-09T07:30:34.136Z,-1.37
2023-02-09T07:33:07.418Z,-1.39
2023-02-09T07:35:34.317Z,-1.37
2023-02-09T07:38:14.443Z,-1.36
2023-02-09T07:40:54.472Z,-1.34
2023-02-09T07:43:27.438Z,-1.32
2023-02-09T07:46:06.499Z,-1.31
2023-02-09T07:48:34.790Z,-1.29
2023-02-09T07:51:08.443Z,-1.25
2023-02-09T07:53:41.419Z,-1.24
2023-02-09T07:56:14.460Z,-1.20
2023-02-09T07:58:40.971Z,-1.18
2023-02-09T08:01:17.496Z,-1.13
2023-02-09T08:03:53.443Z,-1.10
2023-02-09T08:06:41.942Z,-1.04
2023-02-09T08:09:16.416Z,-1.01
2023-02-09T08:11:55.640Z,-1.01
2023-02-09T08:14:33.482Z,-0.95
2023-02-09T08:17:34.431Z,-0.92
2023-02-09T08:20:07.122Z,-0.84
2023-02-09T08:22:44.477Z,-0.82
2023-02-09T08:25:11.882Z,-0.79
2023-02-09T08:27:46.456Z,-0.73
2023-02-09T08:30:15.334Z,-0.68
2023-02-09T08:32:42.077Z,-0.64
2023-02-09T08:35:16.501Z,-0.59
2023-02-09T08:37:49.563Z,-0.53
2023-02-09T08:40:29.496Z,-0.46
2023-02-09T08:43:02.490Z,-0.41
2023-02-09T08:45:29.200Z,-0.35
2023-02-09T08:48:02.469Z,-0.26
2023-02-09T08:50:35.442Z,-0.19
2023-02-09T08:53:11.564Z,-0.12
2023-02-09T08:55:39.267Z,-0.04
2023-02-09T08:58:07.710Z,-0.01
2023-02-09T09:00:40.528Z,0.06
2023-02-09T09:03:07.182Z,0.10
2023-02-09T09:05:41.449Z,0.23
2023-02-09T09:08:10.234Z,0.22
2023-02-09T09:10:43.450Z,0.27
2023-02-09T09:13:10.017Z,0.37
2023-02-09T09:15:43.807Z,0.52
2023-02-09T09:18:10.545Z,0.65
2023-02-09T09:20:47.534Z,0.75
2023-02-09T09:23:20.554Z,0.82
2023-02-09T09:25:47.385Z,0.90
2023-02-09T09:28:20.571Z,0.98
2023-02-09T09:31:12.502Z,1.02
2023-02-09T09:33:46.219Z,1.14
2023-02-09T09:36:21.506Z,1.31
2023-02-09T09:38:56.484Z,1.55
2023-02-09T09:41:38.474Z,1.68
2023-02-09T09:44:38.514Z,1.82
2023-02-09T09:47:12.345Z,1.94
2023-02-09T09:49:46.532Z,2.09
2023-02-09T09:52:30.498Z,2.31
2023-02-09T09:55:05.482Z,2.47
2023-02-09T09:57:32.952Z,2.57
2023-02-09T10:00:09.551Z,2.60
2023-02-09T10:02:36.863Z,2.50
2023-02-09T10:05:28.486Z,2.50
2023-02-09T10:08:05.087Z,2.48
2023-02-09T10:10:51.524Z,2.42
2023-02-09T10:13:24.860Z,2.46
2023-02-09T10:16:01.490Z,2.52
2023-02-09T10:18:30.201Z,2.61
2023-02-09T10:21:13.520Z,2.70
2023-02-09T10:23:41.746Z,2.70
2023-02-09T10:26:14.552Z,2.75
2023-02-09T10:28:44.668Z,2.77
2023-02-09T10:31:42.925Z,2.94
2023-02-09T10:34:18.318Z,3.07
2023-02-09T10:37:20.575Z,3.11
2023-02-09T10:40:07.514Z,3.14
2023-02-09T10:42:46.520Z,3.28
2023-02-09T10:45:20.773Z,3.41
2023-02-09T10:48:25.504Z,3.58
2023-02-09T10:50:53.868Z,3.76
2023-02-09T10:53:39.534Z,3.91
2023-02-09T10:56:28.514Z,4.06
2023-02-09T10:59:22.523Z,4.31
2023-02-09T11:01:58.462Z,4.39
2023-02-09T11:04:36.729Z,4.40
2023-02-09T11:07:12.242Z,4.43
2023-02-09T11:09:53.567Z,4.49
2023-02-09T11:12:29.521Z,4.53
2023-02-09T11:14:56.205Z,4.60
2023-02-09T11:17:46.538Z,4.49
2023-02-09T11:20:38.512Z,4.35
2023-02-09T11:23:20.815Z,4.50
2023-02-09T11:26:29.586Z,4.59
2023-02-09T11:29:02.234Z,4.70
2023-02-09T11:31:59.632Z,4.76
2023-02-09T11:34:29.356Z,4.80
2023-02-09T11:37:14.567Z,4.82
2023-02-09T11:39:57.700Z,4.76
2023-02-09T11:42:53.539Z,4.66
2023-02-09T11:45:20.160Z,4.69
2023-02-09T11:48:09.547Z,4.75
2023-02-09T11:51:13.911Z,4.87
2023-02-09T11:54:12.612Z,4.94
2023-02-09T11:56:42.811Z,4.93
2023-02-09T11:59:28.593Z,4.94
2023-02-09T12:02:27.791Z,4.89
2023-02-09T12:05:09.598Z,4.77
2023-02-09T12:07:57.952Z,4.62
2023-02-09T12:10:46.819Z,4.49
2023-02-09T12:13:35.540Z,4.32
2023-02-09T12:16:21.578Z,4.12
2023-02-09T12:18:48.764Z,3.99
2023-02-09T12:21:34.614Z,4.01
2023-02-09T12:24:02.028Z,4.00
2023-02-09T12:26:47.522Z,4.01
2023-02-09T12:29:32.880Z,4.02
2023-02-09T12:32:12.650Z,3.93
2023-02-09T12:34:46.700Z,3.83
2023-02-09T12:37:19.644Z,3.81
2023-02-09T12:40:10.184Z,3.84
2023-02-09T12:42:56.569Z,3.90
2023-02-09T12:45:38.415Z,3.98
2023-02-09T12:48:14.551Z,4.06
2023-02-09T12:50:44.118Z,4.06
2023-02-09T12:53:29.530Z,4.04
2023-02-09T12:56:04.035Z,4.02
2023-02-09T12:58:41.635Z,4.03
2023-02-09T13:01:08.480Z,4.04
2023-02-09T13:03:50.646Z,4.01
2023-02-09T13:06:29.918Z,3.99
2023-02-09T13:09:08.597Z,3.96
2023-02-09T13:11:46.488Z,3.95
2023-02-09T13:14:22.585Z,3.96
2023-02-09T13:17:19.886Z,4.00
2023-02-09T13:20:03.703Z,4.00
2023-02-09T13:22:33.286Z,4.00
2023-02-09T13:25:36.562Z,4.04
2023-02-09T13:28:22.637Z,4.07
2023-02-09T13:30:55.642Z,4.15
2023-02-09T13:33:43.600Z,4.21
2023-02-09T13:36:46.630Z,4.27
2023-02-09T13:39:29.704Z,4.34
2023-02-09T13:42:02.677Z,4.42
2023-02-09T13:44:32.093Z,4.33
2023-02-09T13:47:13.585Z,4.33
2023-02-09T13:49:40.306Z,4.33
2023-02-09T13:52:17.596Z,4.40
2023-02-09T13:54:44.373Z,4.43
2023-02-09T13:57:40.593Z,4.46
2023-02-09T14:00:10.078Z,4.31
2023-02-09T14:02:44.632Z,4.32
2023-02-09T14:05:11.625Z,4.26
2023-02-09T14:07:45.685Z,4.22
2023-02-09T14:10:17.353Z,4.17
2023-02-09T14:13:07.651Z,4.07
2023-02-09T14:15:59.874Z,4.07
2023-02-09T14:18:32.666Z,4.07
2023-02-09T14:21:19.523Z,4.04
2023-02-09T14:23:55.561Z,4.01
2023-02-09T14:26:36.340Z,3.94
2023-02-09T14:29:24.687Z,3.91
2023-02-09T14:32:10.596Z,3.85
2023-02-09T14:34:45.571Z,3.84
2023-02-09T14:37:18.683Z,3.80
2023-02-09T14:40:21.714Z,3.79
2023-02-09T14:43:13.666Z,3.81
2023-02-09T14:45:52.661Z,3.79
2023-02-09T14:48:23.579Z,3.74
2023-02-09T14:51:00.601Z,3.72
2023-02-09T14:53:31.117Z,3.75
2023-02-09T14:56:06.133Z,3.72
2023-02-09T14:58:34.041Z,3.75
2023-02-09T15:01:08.710Z,3.73
2023-02-09T15:03:35.369Z,3.74
2023-02-09T15:06:10.670Z,3.74
2023-02-09T15:08:38.999Z,3.71
2023-02-09T15:11:34.663Z,3.72
2023-02-09T15:14:04.234Z,3.69
2023-02-09T15:16:37.648Z,3.68
2023-02-09T15:19:16.710Z,3.65
2023-02-09T15:21:43.289Z,3.62
2023-02-09T15:24:16.638Z,3.62
2023-02-09T15:26:49.626Z,3.62
2023-02-09T15:29:22.667Z,3.62
2023-02-09T15:31:49.218Z,3.62
2023-02-09T15:34:22.677Z,3.60
2023-02-09T15:36:55.665Z,3.59
2023-02-09T15:39:37.644Z,3.57
2023-02-09T15:42:37.669Z,3.56
2023-02-09T15:45:47.642Z,3.55
2023-02-09T15:48:15.012Z,3.52
2023-02-09T15:50:50.667Z,3.51
2023-02-09T15:53:25.687Z,3.52
2023-02-09T15:56:00.698Z,3.51
2023-02-09T15:58:37.748Z,3.51
2023-02-09T16:01:11.648Z,3.47
2023-02-09T16:03:38.236Z,3.46
2023-02-09T16:06:20.712Z,3.45
2023-02-09T16:08:48.550Z,3.47
2023-02-09T16:11:44.169Z,3.46
2023-02-09T16:39:28.794Z,3.38
2023-02-09T16:42:04.451Z,3.33
2023-02-09T16:44:39.720Z,3.38
2023-02-09T16:47:21.638Z,3.40
2023-02-09T16:50:09.811Z,3.39
2023-02-09T16:52:36.557Z,3.35
2023-02-09T16:55:17.137Z,3.39
2023-02-09T16:57:50.835Z,3.34
2023-02-09T17:00:24.740Z,3.37
2023-02-09T17:02:55.674Z,6.39
2023-02-09T17:05:33.735Z,11.59
2023-02-09T17:08:26.846Z,17.38
2023-02-09T17:11:11.462Z,18.44
2023-02-09T17:13:47.399Z,19.25
2023-02-09T17:16:20.206Z,16.28
2023-02-09T17:18:56.710Z,11.31
2023-02-09T17:21:41.795Z,12.85
2023-02-09T17:24:15.070Z,16.53
2023-02-09T17:26:50.614Z,17.97
2023-02-09T17:29:20.326Z,19.54
2023-02-09T17:32:02.939Z,21.40
2023-02-09T17:34:29.717Z,21.00
2023-02-09T17:37:04.878Z,22.68
2023-02-09T17:39:44.702Z,22.80
2023-02-09T17:42:22.689Z,23.12
2023-02-09T17:44:57.829Z,22.54
2023-02-09T17:47:24.833Z,23.32
2023-02-09T17:49:57.809Z,22.51
2023-02-09T17:52:24.574Z,21.79
2023-02-09T17:54:57.805Z,20.86
2023-02-09T17:57:27.741Z,20.03
2023-02-09T18:00:00.822Z,19.79
2023-02-09T18:02:27.517Z,19.65
2023-02-09T18:04:54.245Z,21.21
2023-02-09T18:07:33.232Z,21.47
2023-02-09T18:09:59.999Z,21.61
2023-02-09T18:12:33.774Z,20.57
2023-02-09T18:15:00.435Z,20.18
2023-02-09T18:17:43.887Z,20.03
2023-02-09T18:20:29.984Z,20.96
2023-02-09T18:23:11.686Z,20.86
2023-02-09T18:26:03.447Z,20.82
2023-02-09T18:28:36.846Z,20.02
2023-02-09T18:31:22.480Z,20.10
2023-02-09T18:33:55.764Z,19.98
2023-02-09T18:36:28.028Z,20.71
2023-02-09T18:39:03.078Z,20.64
2023-02-09T18:41:38.295Z,19.48
2023-02-09T18:44:12.820Z,19.60
2023-02-09T18:46:39.593Z,18.93
2023-02-09T18:49:21.879Z,20.04
2023-02-09T18:51:54.876Z,21.91
2023-02-09T18:54:21.701Z,22.22
2023-02-09T18:56:54.748Z,20.96
2023-02-09T18:59:21.353Z,20.73
2023-02-09T19:01:54.903Z,21.41
2023-02-09T19:04:21.554Z,21.74
2023-02-09T19:07:11.592Z,22.00
2023-02-09T19:09:40.850Z,21.74
2023-02-09T19:12:16.896Z,21.06
2023-02-09T19:14:46.112Z,21.51
2023-02-09T19:17:24.852Z,21.28
2023-02-09T19:19:51.523Z,21.66
2023-02-09T19:22:27.846Z,20.43
2023-02-09T19:24:56.517Z,20.94
2023-02-09T19:27:24.529Z,21.38
2023-02-09T19:30:02.792Z,21.19
2023-02-09T19:32:41.556Z,21.45
2023-02-09T19:35:22.306Z,20.80
2023-02-09T19:38:03.784Z,21.03
2023-02-09T19:40:40.846Z,22.44
2023-02-09T19:43:13.832Z,22.36
2023-02-09T19:45:40.594Z,22.14
2023-02-09T19:48:37.361Z,21.15
2023-02-09T19:51:02.112Z,21.64
2023-02-09T19:53:34.916Z,23.15
2023-02-09T19:56:08.732Z,23.05
2023-02-09T19:58:43.921Z,22.41
2023-02-09T20:01:20.681Z,22.65
2023-02-09T20:03:56.793Z,23.61
2023-02-09T20:06:32.980Z,24.01
2023-02-09T20:09:00.378Z,24.33
2023-02-09T20:14:14.276Z,21.64
2023-02-09T20:16:48.783Z,20.92
2023-02-09T20:19:15.567Z,21.03
2023-02-09T20:21:56.848Z,21.70
2023-02-09T20:24:24.296Z,22.79
2023-02-09T20:27:07.243Z,24.16
2023-02-09T20:29:37.383Z,24.17
2023-02-09T20:32:11.824Z,22.40
2023-02-09T20:34:46.105Z,22.18
2023-02-09T20:37:24.313Z,21.64
2023-02-09T20:39:57.814Z,21.40
2023-02-09T20:42:49.047Z,21.29
2023-02-09T20:45:43.901Z,21.19
2023-02-09T20:48:10.984Z,21.41
2023-02-09T20:50:48.183Z,21.10
2023-02-09T20:53:15.225Z,22.71
2023-02-09T20:55:49.857Z,24.31
2023-02-09T20:58:17.586Z,23.69
2023-02-09T21:00:51.300Z,22.97
2023-02-09T21:03:18.446Z,22.39
2023-02-09T21:05:51.827Z,21.52
2023-02-09T21:08:18.493Z,21.88
2023-02-09T21:10:54.389Z,22.47
2023-02-09T21:13:21.167Z,22.48
2023-02-09T21:15:54.785Z,20.89
2023-02-09T21:18:28.906Z,20.33
2023-02-09T21:21:01.842Z,20.95
2023-02-09T21:23:43.869Z,21.39
2023-02-09T21:26:32.845Z,21.71
2023-02-09T21:29:08.710Z,19.40
2023-02-09T21:31:47.866Z,19.68
2023-02-09T21:34:16.646Z,20.31
2023-02-09T21:36:49.965Z,21.34
2023-02-09T21:39:31.982Z,21.21
2023-02-09T21:42:17.382Z,20.37
2023-02-09T21:44:50.879Z,20.07
2023-02-09T21:47:26.433Z,20.69
2023-02-09T21:52:45.315Z,20.36
2023-02-09T21:55:19.828Z,20.36
2023-02-09T21:57:46.772Z,20.64
2023-02-09T22:00:20.850Z,21.19
2023-02-09T22:02:54.702Z,19.87
2023-02-09T22:05:33.727Z,13.19
2023-02-09T22:08:09.882Z,8.98
2023-02-09T22:10:42.884Z,6.91
2023-02-09T22:13:15.828Z,5.50
2023-02-09T22:15:43.630Z,4.82
2023-02-09T22:18:17.892Z,4.25
2023-02-09T22:20:51.347Z,3.83
2023-02-09T22:23:25.845Z,3.54
2023-02-09T22:26:08.861Z,3.33
2023-02-09T22:28:48.903Z,3.22
2023-02-09T22:31:18.659Z,2.93
2023-02-09T22:33:51.875Z,2.98
2023-02-09T22:39:10.887Z,2.81
2023-02-09T22:41:54.978Z,2.73
2023-02-09T22:44:28.929Z,2.58
2023-02-09T22:46:58.776Z,2.55
2023-02-09T22:49:31.918Z,2.49
2023-02-09T22:51:58.558Z,2.46
2023-02-09T22:54:31.986Z,2.38
2023-02-09T22:56:58.702Z,2.22
2023-02-09T22:59:31.582Z,2.07
2023-02-09T23:02:13.690Z,2.06
2023-02-09T23:04:40.493Z,2.11
2023-02-09T23:07:13.947Z,2.09
2023-02-09T23:09:40.762Z,2.08
2023-02-09T23:12:09.758Z,1.98
2023-02-09T23:14:42.889Z,1.92
2023-02-09T23:17:15.878Z,1.96
2023-02-09T23:19:42.500Z,1.87
2023-02-09T23:22:15.831Z,1.85
2023-02-09T23:25:15.067Z,1.76
2023-02-09T23:27:41.692Z,1.74
2023-02-09T23:30:17.387Z,1.74
2023-02-09T23:32:53.928Z,1.65
2023-02-09T23:35:21.755Z,1.61
2023-02-09T23:37:55.903Z,1.54
2023-02-09T23:40:28.978Z,1.46
2023-02-09T23:42:55.680Z,1.43
2023-02-09T23:45:28.980Z,1.40
2023-02-09T23:47:55.723Z,1.37
2023-02-09T23:50:28.841Z,1.37
2023-02-09T23:52:55.567Z,1.33
2023-02-09T23:55:28.890Z,1.30
2023-02-09T23:58:04.721Z,1.16
